Time;durP1;ratioP1;P1;durP2;ratioP2;P2;SDS_P1;SDS_P2;PMS_P1;PMS_P2;Temp;Humidity;BMP_temperature;BMP_pressure;BME280_temperature;BME280_humidity;BME280_pressure;Samples;Min_cycle;Max_cycle;Signal;HPM_P1;HPM_P2
2022/05/22 00:02:00;;;;;;;2.63;1.20;;;19.20;99.90;;;;;;5068126;28;20410;-82
2022/05/22 00:04:32;;;;;;;2.50;1.55;;;19.20;99.90;;;;;;5069728;28;20044;-81
2022/05/22 00:07:02;;;;;;;3.60;1.80;;;19.20;99.90;;;;;;5065410;28;20569;-81
2022/05/22 00:09:28;;;;;;;2.90;1.65;;;19.10;99.90;;;;;;5067254;28;20526;-81
2022/05/22 00:11:59;;;;;;;2.78;1.42;;;19.10;99.90;;;;;;5073994;28;20573;-81
2022/05/22 00:14:52;;;;;;;4.32;2.33;;;19.10;99.90;;;;;;5067853;28;21076;-81
2022/05/22 00:17:23;;;;;;;5.13;2.10;;;19.00;99.90;;;;;;5081228;27;20037;-81
2022/05/22 00:19:53;;;;;;;4.65;2.55;;;18.90;99.90;;;;;;5072160;28;20102;-82
2022/05/22 00:22:22;;;;;;;4.55;1.60;;;18.90;99.90;;;;;;5066388;28;20044;-81
2022/05/22 00:24:55;;;;;;;2.95;1.63;;;19.00;99.90;;;;;;5065499;28;20049;-81
2022/05/22 00:27:32;;;;;;;5.47;1.63;;;18.90;99.90;;;;;;5067783;28;20786;-81
2022/05/22 00:30:04;;;;;;;2.28;1.60;;;18.90;99.90;;;;;;5061900;28;20048;-81
2022/05/22 00:35:44;;;;;;;3.30;1.90;;;18.90;99.90;;;;;;5067614;28;20060;-81
2022/05/22 00:38:23;;;;;;;4.18;1.70;;;18.90;99.90;;;;;;5073433;28;20103;-81
2022/05/22 00:40:54;;;;;;;5.15;1.70;;;18.80;99.90;;;;;;5069835;27;22242;-81
2022/05/22 00:43:46;;;;;;;4.78;2.10;;;18.80;99.90;;;;;;5069137;27;20080;-82
2022/05/22 00:46:25;;;;;;;3.80;2.55;;;18.80;99.90;;;;;;5067067;27;20071;-81
2022/05/22 00:49:21;;;;;;;4.68;1.88;;;18.80;99.90;;;;;;5069560;27;20040;-81
2022/05/22 00:52:18;;;;;;;4.85;2.10;;;18.80;99.90;;;;;;5070483;27;20048;-81
2022/05/22 00:55:05;;;;;;;5.70;2.03;;;18.80;99.90;;;;;;5066353;27;20705;-82
2022/05/22 00:57:42;;;;;;;2.95;1.85;;;18.80;99.90;;;;;;5087356;27;20068;-81
2022/05/22 01:00:43;;;;;;;2.90;1.58;;;18.70;99.90;;;;;;5086577;27;20044;-81
2022/05/22 01:03:32;;;;;;;4.70;2.15;;;18.70;99.90;;;;;;5075217;27;20043;-81
2022/05/22 01:06:29;;;;;;;3.30;1.80;;;18.20;99.90;;;;;;5066114;27;21422;-81
2022/05/22 01:09:13;;;;;;;8.63;2.20;;;18.70;99.90;;;;;;5086774;27;20135;-81
2022/05/22 01:11:44;;;;;;;3.22;1.83;;;18.60;99.90;;;;;;5068965;27;20080;-81
2022/05/22 01:14:18;;;;;;;3.47;1.80;;;18.60;99.90;;;;;;5069038;27;20171;-81
2022/05/22 01:16:50;;;;;;;5.63;1.70;;;18.50;99.90;;;;;;5067389;27;20102;-82
2022/05/22 01:19:31;;;;;;;;;;;;;;;;;;;;;
2022/05/22 01:22:08;;;;;;;3.90;2.20;;;18.50;99.90;;;;;;5084817;27;43578;-82
2022/05/22 01:24:42;;;;;;;3.10;1.75;;;18.50;99.90;;;;;;5066656;27;20265;-81
2022/05/22 01:27:28;;;;;;;5.70;2.97;;;18.40;99.90;;;;;;5068651;27;20530;-82
2022/05/22 01:30:43;;;;;;;2.88;1.98;;;18.40;99.90;;;;;;5067704;27;20056;-81
2022/05/22 01:33:19;;;;;;;3.30;1.58;;;18.40;99.90;;;;;;5086041;27;20072;-81
2022/05/22 01:35:53;;;;;;;4.78;1.98;;;18.40;99.90;;;;;;5083494;27;20048;-82
2022/05/22 01:38:26;;;;;;;6.13;2.28;;;18.70;99.90;;;;;;5068438;27;20041;-81
2022/05/22 01:40:55;;;;;;;4.15;1.90;;;18.40;99.90;;;;;;5073270;27;20048;-82
2022/05/22 01:43:24;;;;;;;4.78;1.90;;;18.40;99.90;;;;;;5068796;27;20107;-81
2022/05/22 01:46:08;;;;;;;5.22;2.67;;;18.40;99.90;;;;;;5067900;27;20592;-81
2022/05/22 01:48:50;;;;;;;4.55;2.13;;;18.40;99.90;;;;;;5069910;27;20285;-81
2022/05/22 01:51:18;;;;;;;3.60;1.83;;;18.30;99.90;;;;;;5073547;27;20171;-82
2022/05/22 01:53:47;;;;;;;3.55;2.33;;;18.20;99.90;;;;;;5067722;27;20514;-81
2022/05/22 01:56:27;;;;;;;4.15;2.13;;;18.30;99.90;;;;;;5067965;27;20136;-82
2022/05/22 01:58:53;;;;;;;3.85;2.42;;;18.30;99.90;;;;;;5071582;27;20075;-82
2022/05/22 02:01:22;;;;;;;3.22;1.90;;;18.20;99.90;;;;;;5071374;27;20051;-82
2022/05/22 02:04:01;;;;;;;4.28;1.92;;;18.20;99.90;;;;;;5071185;27;20040;-81
2022/05/22 02:09:46;;;;;;;3.50;2.00;;;18.10;99.90;;;;;;5090927;27;20067;-81
2022/05/22 02:12:31;;;;;;;4.60;1.83;;;18.00;99.90;;;;;;5078403;27;20095;-81
2022/05/22 02:15:10;;;;;;;4.50;2.35;;;18.00;99.90;;;;;;5072873;27;20055;-81
2022/05/22 02:17:36;;;;;;;4.47;2.00;;;17.90;99.90;;;;;;5072242;27;20544;-81
2022/05/22 02:20:09;;;;;;;4.10;2.17;;;18.00;99.90;;;;;;5090170;27;20044;-81
2022/05/22 02:22:43;;;;;;;5.82;2.17;;;18.00;99.90;;;;;;5072561;27;20395;-81
2022/05/22 02:25:18;;;;;;;5.35;2.45;;;18.00;99.90;;;;;;5070359;27;20048;-81
2022/05/22 02:27:50;;;;;;;5.72;2.60;;;18.40;99.90;;;;;;5070899;27;20052;-81
2022/05/22 02:30:23;;;;;;;;;;;17.60;99.90;;;;;;5091539;27;20073;-81
2022/05/22 02:32:52;;;;;;;5.25;3.90;;;17.90;99.90;;;;;;5073742;27;20457;-81
2022/05/22 02:35:27;;;;;;;3.22;1.75;;;17.80;99.90;;;;;;5072679;27;20044;-81
2022/05/22 02:38:02;;;;;;;5.75;1.98;;;17.80;99.90;;;;;;5069583;27;20885;-81
2022/05/22 02:40:32;;;;;;;2.92;1.75;;;18.00;99.90;;;;;;5072543;27;20040;-81
2022/05/22 02:42:59;;;;;;;4.40;2.17;;;17.80;99.90;;;;;;5071340;27;20052;-81
2022/05/22 02:45:30;;;;;;;6.30;2.03;;;17.80;99.90;;;;;;5072677;27;20564;-81
2022/05/22 02:48:07;;;;;;;;;;;17.70;99.90;;;;;;5091141;27;20117;-81
2022/05/22 02:50:49;;;;;;;3.67;2.30;;;17.80;99.90;;;;;;5071620;27;19920;-81
2022/05/22 02:53:23;;;;;;;4.95;2.13;;;17.50;99.90;;;;;;5069967;27;20049;-81
2022/05/22 02:56:06;;;;;;;5.32;3.45;;;17.70;99.90;;;;;;5078464;27;20047;-81
2022/05/22 02:58:54;;;;;;;4.05;1.98;;;17.70;99.90;;;;;;5070532;27;20537;-81
2022/05/22 03:01:24;;;;;;;3.05;2.10;;;17.50;99.90;;;;;;5072462;27;20043;-81
2022/05/22 03:04:00;;;;;;;4.47;2.05;;;17.70;99.90;;;;;;5070050;27;20119;-81
2022/05/22 03:06:49;;;;;;;6.00;1.75;;;17.70;99.90;;;;;;5070670;27;20048;-81
2022/05/22 03:09:27;;;;;;;4.70;2.25;;;17.60;99.90;;;;;;5070204;27;20071;-81
2022/05/22 03:12:14;;;;;;;;;;;;;;;;;;;;;
2022/05/22 03:14:55;;;;;;;7.70;2.40;;;17.60;99.90;;;;;;5088698;27;44030;-82
2022/05/22 03:17:42;;;;;;;4.40;2.30;;;17.60;99.90;;;;;;5076425;27;20067;-82
2022/05/22 03:20:24;;;;;;;4.80;2.58;;;17.60;99.90;;;;;;5086382;27;20056;-84
2022/05/22 03:22:55;;;;;;;4.53;1.90;;;17.70;99.90;;;;;;5076037;27;20041;-81
2022/05/22 03:25:29;;;;;;;5.03;2.55;;;17.70;99.90;;;;;;5071502;27;20506;-82
2022/05/22 03:27:56;;;;;;;5.20;3.38;;;17.60;99.90;;;;;;5088142;27;20621;-82
2022/05/22 03:30:29;;;;;;;5.63;2.60;;;17.80;99.90;;;;;;5068979;27;20553;-81
2022/05/22 03:33:00;;;;;;;5.57;2.30;;;17.60;99.90;;;;;;5072134;27;20032;-82
2022/05/22 03:35:37;;;;;;;3.47;2.47;;;17.80;99.90;;;;;;5086817;27;20072;-82
2022/05/22 03:38:18;;;;;;;5.15;2.30;;;17.60;99.90;;;;;;5069096;27;20051;-82
2022/05/22 03:40:55;;;;;;;4.85;1.90;;;17.60;99.90;;;;;;5085817;27;20052;-81
2022/05/22 03:43:38;;;;;;;6.25;2.42;;;17.60;99.90;;;;;;5045331;28;20041;-82
2022/05/22 03:46:22;;;;;;;5.47;3.22;;;17.70;99.90;;;;;;5045739;28;20057;-82
2022/05/22 03:48:51;;;;;;;7.35;2.33;;;17.60;99.90;;;;;;5045519;28;20548;-82
2022/05/22 03:51:55;;;;;;;8.32;2.95;;;17.50;99.90;;;;;;5047771;28;20107;-82
2022/05/22 03:54:28;;;;;;;6.75;2.30;;;17.40;99.90;;;;;;5045775;28;20523;-82
2022/05/22 03:57:17;;;;;;;6.07;2.60;;;17.50;99.90;;;;;;5045692;28;20049;-81
2022/05/22 03:59:59;;;;;;;6.57;3.05;;;17.50;99.90;;;;;;5044496;28;20179;-81
2022/05/22 04:02:51;;;;;;;;;;;17.50;99.90;;;;;;5043977;28;20037;-82
2022/05/22 04:05:26;;;;;;;4.82;2.45;;;17.50;99.90;;;;;;5049536;28;19971;-82
2022/05/22 04:08:04;;;;;;;5.15;3.22;;;17.50;99.90;;;;;;5052392;28;20516;-81
2022/05/22 04:10:45;;;;;;;6.30;3.53;;;17.30;99.90;;;;;;5047673;28;20520;-81
2022/05/22 04:13:26;;;;;;;3.92;2.47;;;17.50;99.90;;;;;;5041791;28;20047;-81
2022/05/22 04:16:05;;;;;;;7.57;2.88;;;17.00;99.90;;;;;;5047141;28;20473;-81
2022/05/22 04:18:32;;;;;;;4.20;2.10;;;17.50;99.90;;;;;;5044698;28;20041;-81
2022/05/22 04:21:02;;;;;;;8.25;2.83;;;17.50;99.90;;;;;;5060274;28;20053;-81
2022/05/22 04:26:21;;;;;;;8.75;3.20;;;17.50;99.90;;;;;;5045155;28;20041;-81
2022/05/22 04:28:58;;;;;;;5.40;3.42;;;17.20;99.90;;;;;;5042564;28;20081;-82
2022/05/22 04:31:28;;;;;;;4.85;3.05;;;17.50;99.90;;;;;;5044040;28;20053;-81
2022/05/22 04:34:02;;;;;;;6.57;3.60;;;17.40;99.90;;;;;;5047434;28;20049;-81
2022/05/22 04:36:41;;;;;;;5.57;2.80;;;17.40;99.90;;;;;;5045450;28;20042;-81
2022/05/22 04:39:18;;;;;;;6.10;2.63;;;17.40;99.90;;;;;;5043601;28;20056;-81
2022/05/22 04:42:17;;;;;;;5.00;3.17;;;17.50;99.90;;;;;;5065829;27;20048;-82
2022/05/22 04:44:49;;;;;;;3.88;2.20;;;17.50;99.90;;;;;;5077122;27;20048;-81
2022/05/22 04:47:26;;;;;;;7.93;2.88;;;17.50;99.90;;;;;;5069320;27;20043;-81
2022/05/22 04:50:19;;;;;;;4.72;2.53;;;17.30;99.90;;;;;;5074736;27;20056;-82
2022/05/22 04:52:50;;;;;;;4.78;2.50;;;17.70;99.90;;;;;;5059553;27;20082;-82
2022/05/22 04:55:21;;;;;;;7.72;3.30;;;17.70;99.90;;;;;;5073340;27;20125;-81
2022/05/22 04:58:17;;;;;;;5.32;3.33;;;17.70;99.90;;;;;;5076145;27;20056;-82
2022/05/22 05:03:56;;;;;;;6.18;2.50;;;17.80;99.90;;;;;;5085891;27;20055;-82
2022/05/22 05:06:37;;;;;;;5.53;3.08;;;17.60;99.90;;;;;;5085375;27;20343;-82
2022/05/22 05:09:25;;;;;;;6.30;3.00;;;17.80;99.90;;;;;;5070153;27;20044;-82
2022/05/22 05:12:00;;;;;;;4.05;2.83;;;17.90;99.90;;;;;;5064489;27;20048;-82
2022/05/22 05:15:08;;;;;;;7.00;2.60;;;18.00;99.90;;;;;;5065367;27;20052;-83
2022/05/22 05:17:30;;;;;;;6.63;2.95;;;18.00;99.90;;;;;;5083866;27;20052;-82
2022/05/22 05:19:56;;;;;;;8.13;4.07;;;17.20;99.90;;;;;;5068392;27;20057;-80
2022/05/22 05:22:48;;;;;;;4.90;2.72;;;18.00;99.90;;;;;;5069720;27;20088;-83
2022/05/22 05:25:24;;;;;;;5.82;2.55;;;18.00;99.90;;;;;;5089021;27;20037;-82
2022/05/22 05:28:05;;;;;;;4.63;2.13;;;18.40;99.90;;;;;;5071340;27;20059;-82
2022/05/22 05:30:34;;;;;;;5.70;2.28;;;18.00;99.90;;;;;;5067065;27;20548;-81
2022/05/22 05:33:06;;;;;;;6.90;2.70;;;18.00;99.90;;;;;;5089716;27;20170;-82
2022/05/22 05:35:38;;;;;;;5.05;2.40;;;18.00;99.90;;;;;;5071420;27;20098;-82
2022/05/22 05:38:07;;;;;;;5.07;2.03;;;18.10;99.90;;;;;;5078844;27;20123;-83
2022/05/22 05:40:49;;;;;;;4.97;2.40;;;18.80;99.90;;;;;;5071830;27;20039;-82
2022/05/22 05:43:30;;;;;;;3.30;1.70;;;18.10;99.90;;;;;;5090135;27;20048;-82
2022/05/22 05:46:01;;;;;;;7.03;2.00;;;18.20;99.90;;;;;;5072894;27;20068;-82
2022/05/22 05:48:34;;;;;;;5.13;2.05;;;18.30;99.90;;;;;;5090399;27;20052;-82
2022/05/22 05:51:03;;;;;;;7.25;2.38;;;18.50;99.90;;;;;;5078606;27;20588;-82
2022/05/22 05:53:58;;;;;;;2.65;1.73;;;18.40;99.90;;;;;;5075555;27;20154;-82
2022/05/22 05:56:58;;;;;;;7.85;2.35;;;18.40;99.90;;;;;;5077617;27;20131;-83
2022/05/22 05:59:33;;;;;;;4.28;1.63;;;18.40;99.90;;;;;;5066522;27;20510;-82
2022/05/22 06:02:03;;;;;;;7.93;2.00;;;18.80;99.90;;;;;;5071378;27;20040;-83
2022/05/22 06:04:35;;;;;;;4.45;2.05;;;18.40;99.90;;;;;;5071273;27;20135;-82
2022/05/22 06:07:20;;;;;;;4.30;1.67;;;19.00;99.90;;;;;;5069096;27;20040;-81
2022/05/22 06:09:52;;;;;;;4.05;2.15;;;18.50;99.90;;;;;;5068165;27;20052;-83
2022/05/22 06:12:37;;;;;;;;;;;;;;;;;;;;;
2022/05/22 06:15:25;;;;;;;5.15;2.38;;;18.50;99.90;;;;;;5091955;27;43427;-83
2022/05/22 06:17:59;;;;;;;6.55;2.20;;;18.60;99.90;;;;;;5073467;27;20534;-83
2022/05/22 06:20:51;;;;;;;6.22;2.58;;;18.60;99.90;;;;;;5072669;27;20051;-84
2022/05/22 06:23:29;;;;;;;9.07;2.10;;;18.60;99.90;;;;;;5074283;27;21013;-83
2022/05/22 06:26:21;;;;;;;4.30;2.35;;;18.90;99.90;;;;;;5088626;27;20056;-84
2022/05/22 06:28:56;;;;;;;3.63;1.40;;;18.50;99.90;;;;;;5088502;27;20597;-83
2022/05/22 06:31:24;;;;;;;3.25;1.60;;;18.60;99.90;;;;;;5067368;27;20098;-84
2022/05/22 06:34:24;;;;;;;5.20;2.65;;;18.70;99.90;;;;;;5068707;27;20048;-83
2022/05/22 06:36:56;;;;;;;2.85;1.50;;;18.80;99.90;;;;;;5067741;27;20043;-82
2022/05/22 06:42:29;;;;;;;4.13;2.30;;;19.10;99.90;;;;;;5083551;27;20221;-86
2022/05/22 06:45:28;;;;;;;5.68;1.65;;;19.10;99.90;;;;;;5086504;27;20373;-86
2022/05/22 06:48:22;;;;;;;3.40;1.85;;;19.30;99.90;;;;;;5066282;27;20048;-85
2022/05/22 06:51:11;;;;;;;4.13;1.80;;;19.60;99.90;;;;;;5066552;27;20076;-86
2022/05/22 06:54:05;;;;;;;2.53;1.50;;;19.20;99.90;;;;;;5068583;27;20067;-84
2022/05/22 06:56:54;;;;;;;7.63;2.00;;;19.30;99.90;;;;;;5067393;27;20052;-85
2022/05/22 06:59:50;;;;;;;3.88;1.98;;;19.30;99.90;;;;;;5068176;27;20044;-85
2022/05/22 07:02:47;;;;;;;5.05;3.25;;;19.30;99.90;;;;;;5053267;27;20048;-85
2022/05/22 07:05:31;;;;;;;;;;;;;;;;;;;;;
2022/05/22 07:08:06;;;;;;;2.88;1.60;;;19.50;99.90;;;;;;5085576;27;40433;-86
2022/05/22 07:14:04;;;;;;;2.85;1.63;;;19.50;99.90;;;;;;5085401;27;20044;-86
2022/05/22 07:20:18;;;;;;;4.03;1.50;;;19.30;99.90;;;;;;5023896;28;20133;-86
2022/05/22 07:23:01;;;;;;;6.07;1.65;;;19.40;99.90;;;;;;5068167;27;20609;-87
2022/05/22 07:25:58;;;;;;;3.25;1.50;;;19.30;99.90;;;;;;5069850;27;20040;-88
2022/05/22 07:28:32;;;;;;;3.10;1.60;;;19.60;99.90;;;;;;5066208;28;20214;-85
2022/05/22 07:31:15;;;;;;;4.03;1.70;;;19.80;99.90;;;;;;5084532;27;20048;-83
2022/05/22 07:33:50;;;;;;;5.07;1.63;;;20.10;99.90;;;;;;5081126;27;20072;-84
2022/05/22 07:36:20;;;;;;;4.40;1.38;;;20.00;99.90;;;;;;5087079;27;20119;-84
2022/05/22 07:38:48;;;;;;;6.63;2.38;;;20.10;99.90;;;;;;5085055;27;20458;-83
2022/05/22 07:41:31;;;;;;;2.92;1.70;;;20.20;99.90;;;;;;5068765;28;20510;-83
2022/05/22 07:44:07;;;;;;;3.63;1.83;;;20.30;99.90;;;;;;5070467;27;20051;-85
2022/05/22 07:46:48;;;;;;;2.70;1.52;;;20.50;99.90;;;;;;5077747;27;20497;-84
2022/05/22 07:52:09;;;;;;;4.97;1.50;;;20.40;99.90;;;;;;5090882;27;20055;-84
2022/05/22 07:54:49;;;;;;;4.43;2.47;;;20.30;99.90;;;;;;5069467;27;20049;-84
2022/05/22 07:57:26;;;;;;;4.40;1.35;;;20.40;99.90;;;;;;5070489;27;20135;-83
2022/05/22 08:00:25;;;;;;;4.57;1.40;;;20.10;99.90;;;;;;5071652;27;20050;-86
2022/05/22 08:03:20;;;;;;;5.00;1.70;;;20.40;99.90;;;;;;5069772;27;20185;-86
2022/05/22 08:06:18;;;;;;;2.47;1.20;;;20.50;99.90;;;;;;5077134;27;20044;-86
2022/05/22 08:09:07;;;;;;;3.83;1.27;;;20.60;99.90;;;;;;5075532;27;20063;-85
2022/05/22 08:11:49;;;;;;;3.38;1.60;;;20.60;99.90;;;;;;5068400;27;20048;-86
2022/05/22 08:14:41;;;;;;;;;;;20.70;99.90;;;;;;5089508;27;20044;-87
2022/05/22 08:17:20;;;;;;;3.13;1.37;;;20.80;99.90;;;;;;5070320;27;19931;-83
2022/05/22 08:20:26;;;;;;;5.47;1.30;;;20.90;99.90;;;;;;5068082;27;20843;-86
2022/05/22 08:23:00;;;;;;;2.85;1.40;;;21.00;99.90;;;;;;5070141;27;20054;-87
2022/05/22 08:25:56;;;;;;;;;;;;;;;;;;;;;
2022/05/22 08:28:46;;;;;;;1.85;1.20;;;21.20;99.90;;;;;;5089779;27;41659;-88
2022/05/22 08:31:14;;;;;;;1.30;1.02;;;21.20;99.90;;;;;;5077720;27;20044;-83
2022/05/22 08:33:42;;;;;;;2.13;1.23;;;21.20;99.90;;;;;;5069570;27;20041;-84
2022/05/22 08:36:11;;;;;;;3.25;1.20;;;21.30;99.90;;;;;;5069222;27;20074;-82
2022/05/22 08:38:39;;;;;;;4.05;1.27;;;21.40;99.90;;;;;;5070400;27;20972;-84
2022/05/22 08:41:31;;;;;;;2.15;1.15;;;21.50;99.90;;;;;;5068562;27;20047;-84
2022/05/22 08:44:31;;;;;;;7.82;2.22;;;21.70;99.90;;;;;;5069113;27;20048;-83
2022/05/22 08:47:15;;;;;;;3.10;1.52;;;21.80;99.90;;;;;;5070337;27;20151;-83
2022/05/22 08:50:00;;;;;;;2.50;1.30;;;21.90;99.90;;;;;;5070285;27;20560;-82
2022/05/22 08:52:53;;;;;;;1.42;1.10;;;21.80;99.90;;;;;;5088574;27;20040;-83
2022/05/22 08:58:56;;;;;;;3.78;1.40;;;21.70;99.90;;;;;;5087782;27;20174;-83
2022/05/22 09:01:20;;;;;;;1.65;1.02;;;21.40;99.90;;;;;;5086901;27;20045;-83
2022/05/22 09:04:19;;;;;;;3.05;1.38;;;21.40;99.90;;;;;;5075663;27;20044;-83
2022/05/22 09:07:11;;;;;;;1.92;1.23;;;21.20;99.90;;;;;;5069433;27;20139;-83
2022/05/22 09:09:51;;;;;;;1.83;1.35;;;21.10;99.90;;;;;;5070282;27;20036;-84
2022/05/22 09:12:36;;;;;;;2.85;1.52;;;20.90;99.90;;;;;;5072073;27;20135;-82
2022/05/22 09:15:39;;;;;;;1.83;1.20;;;21.00;99.90;;;;;;5071875;27;20044;-82
2022/05/22 09:18:19;;;;;;;2.67;1.65;;;21.10;99.90;;;;;;5073978;27;20346;-83
2022/05/22 09:21:05;;;;;;;4.57;1.73;;;21.00;99.90;;;;;;5071670;27;20660;-83
2022/05/22 09:23:57;;;;;;;3.13;1.45;;;21.10;99.90;;;;;;5076362;27;20143;-83
2022/05/22 09:27:00;;;;;;;3.53;1.30;;;21.20;99.90;;;;;;5086541;27;20040;-82
2022/05/22 09:29:45;;;;;;;1.90;1.13;;;21.20;99.90;;;;;;5092249;27;20582;-84
2022/05/22 09:32:38;;;;;;;4.70;1.60;;;21.20;99.90;;;;;;5088360;27;20098;-85
2022/05/22 09:35:15;;;;;;;6.85;1.58;;;21.20;99.90;;;;;;5072294;27;20509;-83
2022/05/22 09:38:16;;;;;;;2.50;1.27;;;21.10;99.90;;;;;;5077480;27;20125;-82
2022/05/22 09:40:47;;;;;;;2.33;1.40;;;21.10;99.90;;;;;;5075496;27;20434;-83
2022/05/22 09:43:52;;;;;;;2.03;1.58;;;21.00;99.90;;;;;;5088805;27;20599;-83
2022/05/22 09:46:42;;;;;;;2.03;1.25;;;21.00;99.90;;;;;;5073462;27;20122;-83
2022/05/22 09:49:41;;;;;;;2.58;1.17;;;21.00;99.90;;;;;;5087252;27;20565;-84
2022/05/22 09:52:38;;;;;;;2.35;1.25;;;20.80;99.90;;;;;;5077727;27;21210;-83
2022/05/22 09:55:25;;;;;;;3.17;1.10;;;20.90;99.90;;;;;;5081780;27;20932;-84
2022/05/22 09:58:03;;;;;;;13.93;2.78;;;20.90;99.90;;;;;;5093680;27;20040;-84
2022/05/22 10:01:25;;;;;;;3.50;1.30;;;21.00;99.90;;;;;;5092333;27;20223;-85
2022/05/22 10:04:36;;;;;;;3.15;1.65;;;21.50;99.90;;;;;;5075056;27;20745;-90
2022/05/22 10:07:39;;;;;;;1.88;1.05;;;21.10;99.90;;;;;;5045733;27;20198;-84
2022/05/22 10:10:35;;;;;;;3.60;1.65;;;21.10;99.90;;;;;;5070994;27;20563;-83
2022/05/22 10:13:25;;;;;;;4.10;1.70;;;21.10;99.90;;;;;;5071538;27;20040;-83
2022/05/22 10:16:25;;;;;;;1.92;1.30;;;21.10;99.90;;;;;;5079844;27;20165;-82
2022/05/22 10:19:25;;;;;;;2.50;1.25;;;21.10;99.90;;;;;;5072099;27;20047;-83
2022/05/22 10:22:23;;;;;;;2.53;1.52;;;21.00;99.90;;;;;;5087437;27;20132;-83
2022/05/22 10:25:15;;;;;;;3.45;1.88;;;21.00;99.90;;;;;;5089903;27;20043;-83
2022/05/22 10:28:15;;;;;;;2.50;1.67;;;20.70;99.90;;;;;;5073275;27;20146;-82
2022/05/22 10:30:57;;;;;;;6.07;2.15;;;21.10;99.90;;;;;;5073949;27;20095;-83
2022/05/22 10:33:52;;;;;;;4.15;2.55;;;21.20;99.90;;;;;;5076780;27;20048;-85
2022/05/22 10:36:30;;;;;;;4.32;1.52;;;21.40;99.90;;;;;;5072709;27;20067;-83
2022/05/22 10:39:14;;;;;;;1.80;1.40;;;21.50;99.90;;;;;;5073733;27;20055;-82
2022/05/22 10:44:44;;;;;;;2.67;1.58;;;21.60;99.90;;;;;;5090259;27;20052;-82
2022/05/22 10:47:10;;;;;;;2.93;1.87;;;21.20;99.90;;;;;;5071673;27;20121;-83
2022/05/22 10:49:43;;;;;;;2.45;1.30;;;21.80;99.90;;;;;;5071856;27;20953;-83
2022/05/22 10:52:25;;;;;;;3.90;1.52;;;21.90;99.90;;;;;;5069689;27;20044;-84
2022/05/22 10:54:55;;;;;;;3.33;1.67;;;21.70;99.90;;;;;;5087915;27;20167;-83
2022/05/22 10:57:32;;;;;;;3.35;1.70;;;21.80;99.90;;;;;;5070699;27;20048;-83
2022/05/22 11:00:13;;;;;;;5.90;1.60;;;21.70;99.90;;;;;;5071357;27;20048;-83
2022/05/22 11:02:43;;;;;;;4.53;1.80;;;21.60;99.90;;;;;;5089516;27;20043;-83
2022/05/22 11:05:29;;;;;;;3.92;2.30;;;21.70;99.90;;;;;;5078116;27;20057;-83
2022/05/22 11:08:02;;;;;;;3.05;2.10;;;21.70;99.90;;;;;;5072189;27;20121;-83
2022/05/22 11:10:41;;;;;;;2.65;1.42;;;21.80;99.90;;;;;;5071445;27;20048;-83
2022/05/22 11:13:20;;;;;;;2.90;1.17;;;21.50;99.90;;;;;;5078347;27;20079;-83
2022/05/22 11:16:12;;;;;;;3.95;1.80;;;22.00;99.90;;;;;;5076286;27;20193;-82
2022/05/22 11:19:07;;;;;;;3.15;1.63;;;22.20;99.90;;;;;;5070510;27;20040;-83
2022/05/22 11:21:54;;;;;;;3.42;1.90;;;21.90;99.90;;;;;;5068932;27;20040;-83
2022/05/22 11:25:09;;;;;;;5.28;1.80;;;22.30;99.90;;;;;;5070597;27;20052;-83
2022/05/22 11:27:59;;;;;;;3.15;1.40;;;22.30;99.90;;;;;;5046115;27;20069;-83
2022/05/22 11:30:54;;;;;;;2.03;1.42;;;22.20;99.90;;;;;;5089297;27;20036;-84
2022/05/22 11:34:08;;;;;;;4.18;1.90;;;22.30;99.90;;;;;;5071063;27;20044;-82
2022/05/22 11:36:55;;;;;;;5.18;2.38;;;22.10;99.90;;;;;;5090701;27;20044;-83
2022/05/22 11:39:38;;;;;;;5.65;1.80;;;22.30;99.90;;;;;;5068778;27;20535;-83
2022/05/22 11:42:28;;;;;;;3.55;2.05;;;22.30;99.90;;;;;;5067509;28;20048;-83
2022/05/22 11:45:24;;;;;;;3.75;2.33;;;22.70;99.90;;;;;;5067877;28;20040;-83
2022/05/22 11:48:42;;;;;;;8.98;5.28;;;22.60;99.90;;;;;;5068503;28;20040;-82
2022/05/22 11:51:32;;;;;;;11.27;5.32;;;22.70;99.90;;;;;;4990665;28;20529;-83
2022/05/22 11:54:12;;;;;;;5.25;3.78;;;22.70;99.90;;;;;;5064066;28;20544;-83
2022/05/22 11:56:57;;;;;;;;;;;;;;;;;;;;;
2022/05/22 11:59:47;;;;;;;3.42;2.90;;;22.60;99.90;;;;;;5067941;28;38658;-83
2022/05/22 12:03:08;;;;;;;3.22;2.10;;;22.50;99.90;;;;;;5065747;28;20049;-83
2022/05/22 12:06:11;;;;;;;3.45;1.48;;;22.30;99.90;;;;;;5056622;28;20085;-83
2022/05/22 12:09:10;;;;;;;5.03;1.60;;;22.00;99.90;;;;;;5067545;28;20475;-83
2022/05/22 12:12:10;;;;;;;4.40;1.38;;;22.10;99.90;;;;;;5068237;28;20037;-83
2022/05/22 12:14:39;;;;;;;4.55;1.55;;;22.10;99.90;;;;;;5067470;28;20036;-83
2022/05/22 12:17:21;;;;;;;4.90;1.90;;;21.90;99.90;;;;;;5073643;28;20131;-84
2022/05/22 12:20:10;;;;;;;3.60;1.50;;;22.10;99.90;;;;;;5066236;28;20051;-83
2022/05/22 12:25:38;;;;;;;4.05;1.27;;;22.20;99.90;;;;;;5070272;28;20518;-82
2022/05/22 12:28:19;;;;;;;3.83;1.38;;;22.20;99.90;;;;;;5085454;27;20913;-83
2022/05/22 12:30:57;;;;;;;2.55;1.33;;;22.20;99.90;;;;;;5067798;28;20609;-82
2022/05/22 12:33:38;;;;;;;2.75;1.38;;;22.20;99.90;;;;;;5068630;28;20570;-82
2022/05/22 12:36:06;;;;;;;3.58;1.27;;;22.20;99.90;;;;;;5068731;28;20049;-83
2022/05/22 12:38:46;;;;;;;2.65;1.30;;;22.00;99.90;;;;;;5067082;28;20080;-82
2022/05/22 12:41:38;;;;;;;3.15;1.83;;;22.40;99.90;;;;;;5065477;28;20072;-83
2022/05/22 12:44:16;;;;;;;3.35;1.10;;;22.60;99.90;;;;;;5065524;28;21007;-82
2022/05/22 12:46:50;;;;;;;4.95;1.40;;;22.40;99.90;;;;;;5064755;28;20056;-83
2022/05/22 12:49:23;;;;;;;2.25;1.17;;;22.40;99.90;;;;;;5065015;28;20098;-83
2022/05/22 12:52:36;;;;;;;2.90;1.52;;;22.40;99.90;;;;;;5066411;28;20323;-83
2022/05/22 12:55:27;;;;;;;1.90;1.20;;;22.40;99.90;;;;;;5065796;28;20045;-83
2022/05/22 12:57:58;;;;;;;3.65;1.35;;;22.30;99.90;;;;;;5064622;28;20503;-83
2022/05/22 13:00:46;;;;;;;;;;;;;;;;;;;;;
2022/05/22 13:03:42;;;;;;;2.35;1.13;;;22.20;99.90;;;;;;5066313;28;41857;-83
2022/05/22 13:06:22;;;;;;;1.73;1.27;;;22.30;99.90;;;;;;5066252;28;20045;-81
2022/05/22 13:09:09;;;;;;;3.85;1.35;;;22.20;99.90;;;;;;5065398;28;20048;-83
2022/05/22 13:11:58;;;;;;;2.58;1.40;;;22.30;99.90;;;;;;5064780;28;20172;-82
2022/05/22 13:14:31;;;;;;;3.22;2.05;;;22.30;99.90;;;;;;5072710;28;20044;-83
2022/05/22 13:16:58;;;;;;;2.33;1.13;;;22.30;99.90;;;;;;5065418;28;20049;-83
2022/05/22 13:19:40;;;;;;;4.07;1.48;;;22.30;99.90;;;;;;5066134;28;20621;-83
2022/05/22 13:22:27;;;;;;;2.25;1.40;;;22.40;99.90;;;;;;5064088;28;20079;-83
2022/05/22 13:25:00;;;;;;;3.78;1.60;;;22.50;99.90;;;;;;5066768;28;20094;-84
2022/05/22 13:27:30;;;;;;;2.17;1.40;;;22.60;99.90;;;;;;5065935;28;20045;-83
2022/05/22 13:30:37;;;;;;;3.03;1.30;;;22.70;99.90;;;;;;5066001;28;20134;-83
2022/05/22 13:33:11;;;;;;;3.75;1.70;;;22.90;99.90;;;;;;5065722;28;20131;-83
2022/05/22 13:35:59;;;;;;;2.47;1.35;;;23.10;99.90;;;;;;5065988;28;20526;-83
2022/05/22 13:38:33;;;;;;;4.22;2.22;;;23.50;99.90;;;;;;5083053;27;20279;-83
2022/05/22 13:41:24;;;;;;;3.75;1.38;;;23.80;99.90;;;;;;5066897;28;20084;-82
2022/05/22 13:44:27;;;;;;;3.30;1.47;;;24.00;99.90;;;;;;5082946;27;20113;-84
2022/05/22 13:47:53;;;;;;;4.30;1.60;;;24.20;99.70;;;;;;5070001;27;20040;-83
2022/05/22 13:53:35;;;;;;;1.77;1.17;;;24.20;99.20;;;;;;5064136;27;20048;-84
2022/05/22 13:56:14;;;;;;;2.25;1.30;;;24.50;99.10;;;;;;5077142;27;20059;-82
2022/05/22 13:58:50;;;;;;;2.60;1.48;;;24.60;98.60;;;;;;5077073;27;20040;-84
2022/05/22 14:01:43;;;;;;;4.97;1.85;;;24.50;98.00;;;;;;5072120;27;20048;-85
2022/05/22 14:04:09;;;;;;;2.63;1.35;;;24.50;98.00;;;;;;5069667;27;20134;-84
2022/05/22 14:06:39;;;;;;;2.20;1.30;;;24.40;98.00;;;;;;5086031;27;20095;-84
2022/05/22 14:09:07;;;;;;;3.80;1.42;;;24.30;97.90;;;;;;5066925;27;20051;-83
2022/05/22 14:11:49;;;;;;;2.13;1.48;;;24.10;97.60;;;;;;5067340;27;20048;-84
2022/05/22 14:14:22;;;;;;;5.07;2.17;;;24.00;97.60;;;;;;5068186;27;20051;-84
2022/05/22 14:16:56;;;;;;;3.72;1.48;;;23.60;97.70;;;;;;5070198;27;20079;-82
2022/05/22 14:19:36;;;;;;;2.40;1.70;;;23.80;98.00;;;;;;5071977;27;20048;-84
2022/05/22 14:22:25;;;;;;;1.88;1.30;;;23.70;98.10;;;;;;5074046;27;20087;-84
2022/05/22 14:25:05;;;;;;;3.05;1.30;;;23.70;98.30;;;;;;5054683;27;20118;-84
2022/05/22 14:27:46;;;;;;;2.80;1.60;;;23.60;98.40;;;;;;5085640;27;20853;-84
2022/05/22 14:30:30;;;;;;;1.77;1.48;;;23.70;98.30;;;;;;5070166;27;20067;-83
2022/05/22 14:33:06;;;;;;;2.70;1.23;;;23.70;98.00;;;;;;5078196;27;20048;-83
2022/05/22 14:35:50;;;;;;;2.67;1.30;;;23.70;98.00;;;;;;5071664;27;20068;-83
2022/05/22 14:38:29;;;;;;;3.10;1.30;;;23.70;97.80;;;;;;5071977;27;20551;-83
2022/05/22 14:41:01;;;;;;;2.78;1.27;;;23.60;97.80;;;;;;5070927;27;20052;-85
2022/05/22 14:43:43;;;;;;;1.23;0.93;;;23.50;97.70;;;;;;5065222;28;20056;-84
2022/05/22 14:46:22;;;;;;;;;;;23.50;97.60;;;;;;5067726;28;20053;-83
2022/05/22 14:49:00;;;;;;;5.40;1.90;;;23.50;97.50;;;;;;5073025;28;20412;-85
2022/05/22 14:51:35;;;;;;;1.73;1.40;;;23.40;97.60;;;;;;5068201;28;20708;-83